createdAt,value
2023-05-11T00:00:17.000Z,98
2023-05-11T00:02:24.000Z,99
2023-05-11T00:03:50.000Z,98
2023-05-11T00:05:57.000Z,99
2023-05-11T00:07:23.000Z,99
2023-05-11T00:09:29.000Z,99
2023-05-11T00:10:56.000Z,99
2023-05-11T00:13:02.000Z,99
2023-05-11T00:14:28.000Z,99
2023-05-11T00:16:35.000Z,99
2023-05-11T00:18:01.000Z,99
2023-05-11T00:20:07.000Z,99
2023-05-11T00:21:34.000Z,99
2023-05-11T00:23:40.000Z,99
2023-05-11T00:25:06.000Z,99
2023-05-11T00:27:13.000Z,99
2023-05-11T00:28:39.000Z,99
2023-05-11T00:30:45.000Z,99
2023-05-11T00:33:36.000Z,99
2023-05-11T00:35:03.000Z,98
2023-05-11T00:37:09.000Z,99
2023-05-11T00:38:35.000Z,99
2023-05-11T00:40:42.000Z,99
2023-05-11T00:42:08.000Z,99
2023-05-11T00:44:14.000Z,99
2023-05-11T00:45:41.000Z,98
2023-05-11T00:47:47.000Z,98
2023-05-11T00:49:13.000Z,98
2023-05-11T00:51:20.000Z,99
2023-05-11T00:52:46.000Z,99
2023-05-11T00:54:52.000Z,99
2023-05-11T00:56:19.000Z,100
2023-05-11T00:58:25.000Z,100
2023-05-11T00:59:51.000Z,100
2023-05-11T01:01:57.000Z,100
2023-05-11T01:03:24.000Z,99
2023-05-11T01:05:30.000Z,99
2023-05-11T01:06:57.000Z,99
2023-05-11T01:09:03.000Z,100
2023-05-11T01:11:54.000Z,100
2023-05-11T01:13:20.000Z,100
2023-05-11T01:15:26.000Z,100
2023-05-11T01:16:53.000Z,99
2023-05-11T01:18:59.000Z,99
2023-05-11T01:20:26.000Z,99
2023-05-11T01:22:32.000Z,99
2023-05-11T01:23:58.000Z,99
2023-05-11T01:26:04.000Z,99
2023-05-11T01:27:31.000Z,99
2023-05-11T01:29:37.000Z,99
2023-05-11T01:31:03.000Z,99
2023-05-11T01:33:09.000Z,99
2023-05-11T01:34:36.000Z,98
2023-05-11T01:36:42.000Z,98
2023-05-11T01:38:09.000Z,99
2023-05-11T01:40:15.000Z,100
2023-05-11T01:41:42.000Z,100
2023-05-11T01:43:48.000Z,100
2023-05-11T01:45:15.000Z,99
2023-05-11T01:47:21.000Z,99
2023-05-11T01:50:12.000Z,99
2023-05-11T01:51:39.000Z,99
2023-05-11T01:53:45.000Z,99
2023-05-11T01:55:12.000Z,99
2023-05-11T02:03:12.000Z,99
2023-05-11T02:05:38.000Z,99
2023-05-11T02:07:04.000Z,99
2023-05-11T02:09:10.000Z,99
2023-05-11T02:10:37.000Z,99
2023-05-11T02:12:43.000Z,99
2023-05-11T02:14:10.000Z,99
2023-05-11T02:16:16.000Z,99
2023-05-11T02:17:42.000Z,100
2023-05-11T02:19:48.000Z,100
2023-05-11T02:21:15.000Z,100
2023-05-11T02:23:21.000Z,99
2023-05-11T02:24:47.000Z,99
2023-05-11T02:26:53.000Z,100
2023-05-11T02:29:45.000Z,100
2023-05-11T02:31:11.000Z,100
2023-05-11T02:33:17.000Z,100
2023-05-11T02:34:44.000Z,100
2023-05-11T02:36:50.000Z,99
2023-05-11T02:38:17.000Z,100
2023-05-11T02:40:23.000Z,100
2023-05-11T02:41:49.000Z,100
2023-05-11T02:43:55.000Z,100
2023-05-11T02:45:22.000Z,99
2023-05-11T02:47:28.000Z,99
2023-05-11T02:48:54.000Z,99
2023-05-11T02:51:01.000Z,100
2023-05-11T02:52:27.000Z,99
2023-05-11T02:54:33.000Z,99
2023-05-11T02:56:00.000Z,99
2023-05-11T02:58:06.000Z,99
2023-05-11T02:59:33.000Z,99
2023-05-11T03:01:39.000Z,99
2023-05-11T03:03:05.000Z,99
2023-05-11T03:05:12.000Z,99
2023-05-11T03:08:03.000Z,99
2023-05-11T03:09:29.000Z,100
2023-05-11T03:11:35.000Z,100
2023-05-11T03:13:02.000Z,100
2023-05-11T03:15:08.000Z,100
2023-05-11T03:16:34.000Z,100
2023-05-11T03:18:41.000Z,100
2023-05-11T03:20:07.000Z,100
2023-05-11T03:22:14.000Z,100
2023-05-11T03:23:40.000Z,100
2023-05-11T03:25:46.000Z,100
2023-05-11T03:27:13.000Z,100
2023-05-11T03:29:19.000Z,100
2023-05-11T03:30:45.000Z,100
2023-05-11T03:32:51.000Z,99
2023-05-11T03:34:18.000Z,100
2023-05-11T03:36:24.000Z,100
2023-05-11T03:37:50.000Z,100
2023-05-11T03:39:56.000Z,100
2023-05-11T03:41:23.000Z,100
2023-05-11T03:43:29.000Z,100
2023-05-11T03:46:20.000Z,100
2023-05-11T03:47:47.000Z,100
2023-05-11T03:49:53.000Z,100
2023-05-11T03:51:20.000Z,100
2023-05-11T03:53:26.000Z,100
2023-05-11T03:54:52.000Z,100
2023-05-11T03:56:58.000Z,100
2023-05-11T03:58:25.000Z,100
2023-05-11T04:00:31.000Z,100
2023-05-11T04:01:58.000Z,100
2023-05-11T04:04:04.000Z,100
2023-05-11T04:05:30.000Z,100
2023-05-11T04:07:36.000Z,100
2023-05-11T04:09:03.000Z,100
2023-05-11T04:11:09.000Z,100
2023-05-11T04:12:36.000Z,100
2023-05-11T04:14:42.000Z,100
2023-05-11T04:16:08.000Z,100
2023-05-11T04:18:14.000Z,100
2023-05-11T04:19:41.000Z,100
2023-05-11T04:21:47.000Z,100
2023-05-11T04:24:38.000Z,100
2023-05-11T04:26:05.000Z,100
2023-05-11T04:28:11.000Z,100
2023-05-11T04:29:37.000Z,100
2023-05-11T04:31:43.000Z,100
2023-05-11T04:33:10.000Z,100
2023-05-11T04:35:16.000Z,100
2023-05-11T04:36:42.000Z,100
2023-05-11T04:38:48.000Z,100
2023-05-11T04:40:15.000Z,100
2023-05-11T04:42:21.000Z,100
2023-05-11T04:43:48.000Z,100
2023-05-11T04:45:54.000Z,100
2023-05-11T04:47:21.000Z,100
2023-05-11T04:49:27.000Z,100
2023-05-11T04:50:53.000Z,100
2023-05-11T04:52:59.000Z,100
2023-05-11T04:54:26.000Z,99
2023-05-11T04:56:32.000Z,99
2023-05-11T04:57:58.000Z,99
2023-05-11T05:00:05.000Z,99
2023-05-11T05:02:56.000Z,99
2023-05-11T05:04:22.000Z,99
2023-05-11T05:06:29.000Z,99
2023-05-11T05:07:55.000Z,99
2023-05-11T05:10:01.000Z,98
2023-05-11T05:11:28.000Z,99
2023-05-11T05:13:34.000Z,99
2023-05-11T05:15:00.000Z,99
2023-05-11T05:17:06.000Z,99
2023-05-11T05:18:33.000Z,99
2023-05-11T05:20:39.000Z,98
2023-05-11T05:22:06.000Z,98
2023-05-11T05:24:12.000Z,98
2023-05-11T05:25:38.000Z,98
2023-05-11T05:27:44.000Z,98
2023-05-11T05:29:11.000Z,98
2023-05-11T05:31:17.000Z,98
2023-05-11T05:32:44.000Z,99
2023-05-11T05:34:50.000Z,99
2023-05-11T05:36:17.000Z,99
2023-05-11T05:38:23.000Z,99
2023-05-11T05:41:14.000Z,99
2023-05-11T05:42:41.000Z,98
2023-05-11T05:44:47.000Z,98
2023-05-11T05:46:14.000Z,99
2023-05-11T05:48:20.000Z,99
2023-05-11T05:49:46.000Z,98
2023-05-11T05:51:52.000Z,99
2023-05-11T05:53:19.000Z,98
2023-05-11T05:55:25.000Z,98
2023-05-11T05:56:51.000Z,97
2023-05-11T05:58:57.000Z,97
2023-05-11T06:00:24.000Z,95
2023-05-11T06:02:30.000Z,97
2023-05-11T06:03:57.000Z,96
2023-05-11T06:06:03.000Z,96
2023-05-11T06:07:30.000Z,95
2023-05-11T06:09:36.000Z,97
2023-05-11T06:11:05.000Z,96
2023-05-11T06:13:11.000Z,95
2023-05-11T06:14:38.000Z,97
2023-05-11T06:16:44.000Z,96
2023-05-11T06:19:35.000Z,96
2023-05-11T06:21:02.000Z,96
2023-05-11T06:23:08.000Z,96
2023-05-11T06:24:35.000Z,97
2023-05-11T06:26:41.000Z,96
2023-05-11T06:28:07.000Z,97
2023-05-11T06:30:13.000Z,95
2023-05-11T06:31:40.000Z,96
2023-05-11T06:33:46.000Z,96
2023-05-11T06:35:13.000Z,96
2023-05-11T06:37:19.000Z,96
2023-05-11T06:38:45.000Z,96
2023-05-11T06:40:51.000Z,96
2023-05-11T06:42:18.000Z,97
2023-05-11T06:44:24.000Z,97
2023-05-11T06:45:50.000Z,96
2023-05-11T06:47:56.000Z,96
2023-05-11T06:49:23.000Z,96
2023-05-11T06:51:29.000Z,97
2023-05-11T06:52:56.000Z,95
2023-05-11T06:55:02.000Z,96
2023-05-11T06:57:53.000Z,96
2023-05-11T06:59:20.000Z,96
2023-05-11T07:01:26.000Z,96
2023-05-11T07:02:52.000Z,95
2023-05-11T07:04:58.000Z,95
2023-05-11T07:06:25.000Z,95
2023-05-11T07:08:31.000Z,95
2023-05-11T07:09:58.000Z,94
2023-05-11T07:12:04.000Z,94
2023-05-11T07:13:30.000Z,93
2023-05-11T07:15:36.000Z,95
2023-05-11T07:17:03.000Z,95
2023-05-11T07:19:09.000Z,95
2023-05-11T07:20:36.000Z,95
2023-05-11T07:22:42.000Z,94
2023-05-11T07:24:09.000Z,95
2023-05-11T07:26:15.000Z,94
2023-05-11T07:27:41.000Z,95
2023-05-11T07:29:47.000Z,95
2023-05-11T07:31:14.000Z,95
2023-05-11T07:33:20.000Z,94
2023-05-11T07:36:11.000Z,95
2023-05-11T07:37:38.000Z,94
2023-05-11T07:39:44.000Z,94
2023-05-11T07:41:11.000Z,94
2023-05-11T07:43:18.000Z,95
2023-05-11T07:44:45.000Z,95
2023-05-11T07:46:51.000Z,94
2023-05-11T07:48:17.000Z,95
2023-05-11T07:50:24.000Z,96
2023-05-11T07:51:51.000Z,95
2023-05-11T07:53:57.000Z,95
2023-05-11T07:55:24.000Z,95
2023-05-11T07:57:30.000Z,95
2023-05-11T07:58:56.000Z,96
2023-05-11T08:01:03.000Z,96
2023-05-11T08:02:29.000Z,95
2023-05-11T08:04:36.000Z,96
2023-05-11T08:06:02.000Z,95
2023-05-11T08:08:08.000Z,95
2023-05-11T08:09:35.000Z,95
2023-05-11T08:11:41.000Z,96
2023-05-11T08:14:32.000Z,96
2023-05-11T08:15:59.000Z,95
2023-05-11T08:18:05.000Z,95
2023-05-11T08:19:31.000Z,95
2023-05-11T08:21:38.000Z,94
2023-05-11T08:23:04.000Z,95
2023-05-11T08:25:10.000Z,95
2023-05-11T08:26:37.000Z,94
2023-05-11T08:28:43.000Z,93
2023-05-11T08:30:09.000Z,94
2023-05-11T08:32:17.000Z,95
2023-05-11T08:33:44.000Z,94
2023-05-11T08:35:50.000Z,94
2023-05-11T08:37:17.000Z,95
2023-05-11T08:39:23.000Z,94
2023-05-11T08:41:12.000Z,93
2023-05-11T08:43:18.000Z,93
2023-05-11T08:44:44.000Z,92
2023-05-11T08:46:50.000Z,93
2023-05-11T08:48:37.000Z,94
2023-05-11T08:50:43.000Z,92
2023-05-11T08:53:34.000Z,92
2023-05-11T08:55:01.000Z,91
2023-05-11T08:57:07.000Z,90
2023-05-11T08:58:34.000Z,89
2023-05-11T09:00:40.000Z,88
2023-05-11T09:02:06.000Z,89
2023-05-11T09:04:12.000Z,88
2023-05-11T09:05:39.000Z,88
2023-05-11T09:07:45.000Z,88
2023-05-11T09:09:12.000Z,87
2023-05-11T09:11:18.000Z,89
2023-05-11T09:12:44.000Z,89
2023-05-11T09:14:50.000Z,87
2023-05-11T09:16:17.000Z,89
2023-05-11T09:18:42.000Z,88
2023-05-11T09:20:09.000Z,88
2023-05-11T09:22:15.000Z,86
2023-05-11T09:23:41.000Z,86
2023-05-11T09:25:48.000Z,86
2023-05-11T09:29:26.000Z,85
2023-05-11T09:32:21.000Z,87
2023-05-11T09:33:48.000Z,86
2023-05-11T09:35:54.000Z,86
2023-05-11T09:37:20.000Z,86
2023-05-11T09:39:26.000Z,85
2023-05-11T09:41:05.000Z,88
2023-05-11T09:43:11.000Z,82
2023-05-11T09:44:38.000Z,85
2023-05-11T09:46:44.000Z,85
2023-05-11T09:48:11.000Z,86
2023-05-11T09:50:17.000Z,86
2023-05-11T09:51:44.000Z,84
2023-05-11T09:53:50.000Z,84
2023-05-11T09:55:17.000Z,82
2023-05-11T09:57:23.000Z,82
2023-05-11T09:58:50.000Z,84
2023-05-11T10:00:56.000Z,84
2023-05-11T10:02:22.000Z,83
2023-05-11T10:04:29.000Z,85
2023-05-11T10:05:56.000Z,85
2023-05-11T10:08:02.000Z,84
2023-05-11T10:10:53.000Z,84
2023-05-11T10:12:20.000Z,82
2023-05-11T10:14:26.000Z,83
2023-05-11T10:15:52.000Z,84
2023-05-11T10:17:58.000Z,83
2023-05-11T10:19:25.000Z,82
2023-05-11T10:21:31.000Z,83
2023-05-11T10:22:58.000Z,84
2023-05-11T10:25:04.000Z,84
2023-05-11T10:26:30.000Z,83
2023-05-11T10:28:36.000Z,85
2023-05-11T10:30:03.000Z,82
2023-05-11T10:32:09.000Z,84
2023-05-11T10:33:36.000Z,83
2023-05-11T10:35:42.000Z,83
2023-05-11T10:37:08.000Z,82
2023-05-11T10:39:14.000Z,83
2023-05-11T10:40:41.000Z,83
2023-05-11T10:42:47.000Z,82
2023-05-11T10:44:14.000Z,82
2023-05-11T10:46:20.000Z,82
2023-05-11T10:49:11.000Z,82
2023-05-11T10:50:38.000Z,84
2023-05-11T10:52:44.000Z,84
2023-05-11T10:54:10.000Z,83
2023-05-11T10:56:16.000Z,83
2023-05-11T10:57:43.000Z,82
2023-05-11T10:59:49.000Z,83
2023-05-11T11:01:15.000Z,84
2023-05-11T11:03:21.000Z,82
2023-05-11T11:04:48.000Z,83
2023-05-11T11:06:54.000Z,83
2023-05-11T11:08:20.000Z,83
2023-05-11T11:10:27.000Z,82
2023-05-11T11:11:53.000Z,81
2023-05-11T11:13:59.000Z,83
2023-05-11T11:15:26.000Z,79
2023-05-11T11:17:32.000Z,80
2023-05-11T11:18:59.000Z,79
2023-05-11T11:21:05.000Z,79
2023-05-11T11:22:31.000Z,79
2023-05-11T11:24:37.000Z,77
2023-05-11T11:27:29.000Z,79
2023-05-11T11:28:57.000Z,80
2023-05-11T11:31:03.000Z,79
2023-05-11T11:32:29.000Z,77
2023-05-11T11:34:35.000Z,77
2023-05-11T11:36:02.000Z,76
2023-05-11T11:38:08.000Z,79
2023-05-11T11:39:34.000Z,77
2023-05-11T11:41:41.000Z,77
2023-05-11T11:43:07.000Z,78
2023-05-11T11:45:13.000Z,77
2023-05-11T11:46:40.000Z,80
2023-05-11T11:48:46.000Z,79
2023-05-11T11:50:12.000Z,77
2023-05-11T11:52:19.000Z,79
2023-05-11T11:53:45.000Z,78
2023-05-11T11:55:51.000Z,77
2023-05-11T11:57:18.000Z,78
2023-05-11T11:59:24.000Z,80
2023-05-11T12:00:50.000Z,81
2023-05-11T12:02:57.000Z,80
2023-05-11T12:05:48.000Z,78
2023-05-11T12:07:14.000Z,80
2023-05-11T12:09:20.000Z,79
2023-05-11T12:10:47.000Z,79
2023-05-11T12:12:53.000Z,80
2023-05-11T12:14:20.000Z,80
2023-05-11T12:16:26.000Z,81
2023-05-11T12:17:52.000Z,80
2023-05-11T12:19:59.000Z,81
2023-05-11T12:21:25.000Z,82
2023-05-11T12:23:31.000Z,80
2023-05-11T12:24:58.000Z,83
2023-05-11T12:27:06.000Z,84
2023-05-11T12:28:33.000Z,81
2023-05-11T12:30:39.000Z,81
2023-05-11T12:32:05.000Z,82
2023-05-11T12:34:11.000Z,84
2023-05-11T12:35:38.000Z,82
2023-05-11T12:37:44.000Z,84
2023-05-11T12:39:11.000Z,84
2023-05-11T12:41:17.000Z,86
2023-05-11T12:44:08.000Z,87
2023-05-11T12:45:34.000Z,87
2023-05-11T12:47:40.000Z,86
2023-05-11T12:49:07.000Z,86
2023-05-11T12:51:13.000Z,87
2023-05-11T12:52:40.000Z,89
2023-05-11T12:54:46.000Z,86
2023-05-11T12:56:12.000Z,87
2023-05-11T12:58:18.000Z,86
2023-05-11T12:59:45.000Z,87
2023-05-11T13:01:51.000Z,85
2023-05-11T13:03:18.000Z,86
2023-05-11T13:05:24.000Z,86
2023-05-11T13:06:50.000Z,87
2023-05-11T13:08:56.000Z,87
2023-05-11T13:10:23.000Z,87
2023-05-11T13:12:29.000Z,87
2023-05-11T13:13:58.000Z,87
2023-05-11T13:16:04.000Z,86
2023-05-11T13:17:31.000Z,86
2023-05-11T13:19:37.000Z,86
2023-05-11T13:22:29.000Z,85
2023-05-11T13:23:55.000Z,87
2023-05-11T13:26:01.000Z,86
2023-05-11T13:27:28.000Z,84
2023-05-11T13:29:34.000Z,85
2023-05-11T13:31:00.000Z,86
2023-05-11T13:33:07.000Z,87
2023-05-11T13:34:34.000Z,86
2023-05-11T13:36:40.000Z,86
2023-05-11T13:38:06.000Z,88
2023-05-11T13:40:12.000Z,86
2023-05-11T13:41:39.000Z,88
2023-05-11T13:43:45.000Z,88
2023-05-11T13:45:11.000Z,88
2023-05-11T13:47:18.000Z,89
2023-05-11T13:48:44.000Z,90
2023-05-11T13:50:50.000Z,91
2023-05-11T13:52:17.000Z,90
2023-05-11T13:54:23.000Z,89
2023-05-11T13:55:49.000Z,90
2023-05-11T13:57:55.000Z,91
2023-05-11T14:00:47.000Z,90
2023-05-11T14:02:33.000Z,90
2023-05-11T14:04:39.000Z,90
2023-05-11T14:06:06.000Z,89
2023-05-11T14:08:12.000Z,90
2023-05-11T14:09:38.000Z,90
2023-05-11T14:11:44.000Z,88
2023-05-11T14:13:11.000Z,90
2023-05-11T14:15:17.000Z,89
2023-05-11T14:16:44.000Z,90
2023-05-11T14:18:50.000Z,91
2023-05-11T14:20:17.000Z,90
2023-05-11T14:22:23.000Z,89
2023-05-11T14:23:50.000Z,91
2023-05-11T14:26:17.000Z,91
2023-05-11T14:27:43.000Z,92
2023-05-11T14:29:49.000Z,93
2023-05-11T14:31:16.000Z,91
2023-05-11T14:33:22.000Z,91
2023-05-11T14:34:48.000Z,93
2023-05-11T14:36:55.000Z,92
2023-05-11T14:39:46.000Z,91
2023-05-11T14:41:12.000Z,91
2023-05-11T14:43:18.000Z,89
2023-05-11T14:44:45.000Z,90
2023-05-11T14:46:51.000Z,91
2023-05-11T14:48:18.000Z,92
2023-05-11T14:50:24.000Z,92
2023-05-11T14:51:50.000Z,92
2023-05-11T14:53:56.000Z,92
2023-05-11T14:55:23.000Z,92
2023-05-11T14:57:29.000Z,92
2023-05-11T14:58:56.000Z,93
2023-05-11T15:01:02.000Z,93
2023-05-11T15:02:28.000Z,94
2023-05-11T15:04:35.000Z,93
2023-05-11T15:06:02.000Z,94
2023-05-11T15:08:08.000Z,94
2023-05-11T15:09:52.000Z,94
2023-05-11T15:13:31.000Z,94
2023-05-11T15:14:04.000Z,95
2023-05-11T15:15:31.000Z,92
2023-05-11T15:17:37.000Z,92
2023-05-11T15:20:23.000Z,93
2023-05-11T15:21:49.000Z,93
2023-05-11T15:23:55.000Z,94
2023-05-11T15:25:22.000Z,94
2023-05-11T15:27:28.000Z,94
2023-05-11T15:28:54.000Z,94
2023-05-11T15:31:00.000Z,94
2023-05-11T15:32:27.000Z,94
2023-05-11T15:34:34.000Z,94
2023-05-11T15:36:10.000Z,94
2023-05-11T15:38:16.000Z,95
2023-05-11T15:39:43.000Z,95
2023-05-11T15:41:49.000Z,95
2023-05-11T15:43:16.000Z,96
2023-05-11T15:45:22.000Z,96
2023-05-11T15:46:48.000Z,97
2023-05-11T15:48:54.000Z,96
2023-05-11T15:50:24.000Z,97
2023-05-11T15:52:30.000Z,96
2023-05-11T15:53:57.000Z,96
2023-05-11T15:56:03.000Z,96
2023-05-11T15:58:54.000Z,97
2023-05-11T16:00:20.000Z,97
2023-05-11T16:02:27.000Z,97
2023-05-11T16:03:54.000Z,97
2023-05-11T16:06:00.000Z,97
2023-05-11T16:07:26.000Z,96
2023-05-11T16:09:32.000Z,96
2023-05-11T16:10:59.000Z,97
2023-05-11T16:13:05.000Z,97
2023-05-11T16:14:32.000Z,96
2023-05-11T16:16:38.000Z,96
2023-05-11T16:18:04.000Z,97
2023-05-11T16:20:11.000Z,97
2023-05-11T16:21:38.000Z,97
2023-05-11T16:23:44.000Z,97
2023-05-11T16:25:10.000Z,97
2023-05-11T16:27:16.000Z,98
2023-05-11T16:28:43.000Z,97
2023-05-11T16:30:49.000Z,97
2023-05-11T16:32:16.000Z,97
2023-05-11T16:34:22.000Z,98
2023-05-11T16:37:13.000Z,98
2023-05-11T16:38:39.000Z,98
2023-05-11T16:40:45.000Z,98
2023-05-11T16:42:12.000Z,98
2023-05-11T16:44:18.000Z,97
2023-05-11T16:45:44.000Z,98
2023-05-11T16:47:50.000Z,98
2023-05-11T16:49:17.000Z,97
2023-05-11T16:51:23.000Z,98
2023-05-11T16:52:50.000Z,98
2023-05-11T16:54:56.000Z,98
2023-05-11T16:56:25.000Z,98
2023-05-11T16:58:31.000Z,98
2023-05-11T16:59:58.000Z,98
2023-05-11T17:02:04.000Z,98
2023-05-11T17:03:31.000Z,98
2023-05-11T17:05:37.000Z,98
2023-05-11T17:07:04.000Z,99
2023-05-11T17:09:10.000Z,99
2023-05-11T17:10:36.000Z,99
2023-05-11T17:12:42.000Z,99
2023-05-11T17:15:33.000Z,98
2023-05-11T17:17:00.000Z,98
2023-05-11T17:19:06.000Z,98
2023-05-11T17:20:33.000Z,98
2023-05-11T17:22:39.000Z,98
2023-05-11T17:24:05.000Z,98
2023-05-11T17:26:12.000Z,98
2023-05-11T17:27:38.000Z,98
2023-05-11T17:29:44.000Z,98
2023-05-11T17:31:11.000Z,98
2023-05-11T17:33:17.000Z,99
2023-05-11T17:34:44.000Z,99
2023-05-11T17:36:50.000Z,98
2023-05-11T17:38:17.000Z,99
2023-05-11T17:40:23.000Z,99
2023-05-11T17:41:49.000Z,99
2023-05-11T17:43:56.000Z,99
2023-05-11T17:45:22.000Z,98
2023-05-11T17:47:28.000Z,98
2023-05-11T17:48:55.000Z,98
2023-05-11T17:51:01.000Z,98
2023-05-11T17:53:53.000Z,100
2023-05-11T17:55:19.000Z,99
2023-05-11T17:57:26.000Z,98
2023-05-11T17:58:52.000Z,98
2023-05-11T18:00:58.000Z,98
2023-05-11T18:02:25.000Z,98
2023-05-11T18:04:31.000Z,98
2023-05-11T18:05:58.000Z,98
2023-05-11T18:08:04.000Z,98
2023-05-11T18:09:34.000Z,98
2023-05-11T18:11:40.000Z,98
2023-05-11T18:13:06.000Z,98
2023-05-11T18:15:12.000Z,98
2023-05-11T18:16:39.000Z,98
2023-05-11T18:18:45.000Z,99
2023-05-11T18:20:12.000Z,99
2023-05-11T18:22:18.000Z,99
2023-05-11T18:23:44.000Z,99
2023-05-11T18:25:50.000Z,98
2023-05-11T18:27:17.000Z,98
2023-05-11T18:29:23.000Z,97
2023-05-11T18:32:14.000Z,98
2023-05-11T18:33:41.000Z,99
2023-05-11T18:35:47.000Z,99
2023-05-11T18:37:13.000Z,99
2023-05-11T18:39:19.000Z,99
2023-05-11T18:40:46.000Z,99
2023-05-11T18:42:52.000Z,99
2023-05-11T18:44:19.000Z,98
2023-05-11T18:46:25.000Z,98
2023-05-11T18:47:51.000Z,98
2023-05-11T18:49:57.000Z,99
2023-05-11T18:51:24.000Z,99
2023-05-11T18:53:30.000Z,99
2023-05-11T18:54:56.000Z,99
2023-05-11T18:57:03.000Z,99
2023-05-11T18:58:29.000Z,99
2023-05-11T19:00:35.000Z,99
2023-05-11T19:02:02.000Z,99
2023-05-11T19:04:08.000Z,99
2023-05-11T19:05:34.000Z,99
2023-05-11T19:07:40.000Z,99
2023-05-11T19:10:32.000Z,99
2023-05-11T19:11:58.000Z,99
2023-05-11T19:14:05.000Z,99
2023-05-11T19:15:31.000Z,100
2023-05-11T19:17:37.000Z,100
2023-05-11T19:19:04.000Z,100
2023-05-11T19:21:10.000Z,100
2023-05-11T19:22:37.000Z,100
2023-05-11T19:24:43.000Z,100
2023-05-11T19:26:09.000Z,100
2023-05-11T19:28:15.000Z,100
2023-05-11T19:29:42.000Z,100
2023-05-11T19:31:48.000Z,100
2023-05-11T19:33:15.000Z,100
2023-05-11T19:35:21.000Z,100
2023-05-11T19:36:48.000Z,100
2023-05-11T19:38:54.000Z,100
2023-05-11T19:40:20.000Z,100
2023-05-11T19:42:51.000Z,100
2023-05-11T19:44:18.000Z,100
2023-05-11T19:46:24.000Z,100
2023-05-11T19:49:15.000Z,100
2023-05-11T19:50:41.000Z,100
2023-05-11T19:52:48.000Z,100
2023-05-11T19:54:14.000Z,100
2023-05-11T19:56:20.000Z,100
2023-05-11T19:57:47.000Z,100
2023-05-11T19:59:53.000Z,100
2023-05-11T20:01:19.000Z,100
2023-05-11T20:03:26.000Z,100
2023-05-11T20:04:55.000Z,100
2023-05-11T20:07:01.000Z,100
2023-05-11T20:08:27.000Z,100
2023-05-11T20:10:34.000Z,100
2023-05-11T20:12:00.000Z,100
2023-05-11T20:14:06.000Z,100
2023-05-11T20:15:33.000Z,100
2023-05-11T20:17:39.000Z,100
2023-05-11T20:19:06.000Z,100
2023-05-11T20:21:12.000Z,100
2023-05-11T20:22:38.000Z,100
2023-05-11T20:24:45.000Z,100
2023-05-11T20:27:36.000Z,100
2023-05-11T20:29:02.000Z,100
2023-05-11T20:31:09.000Z,100
2023-05-11T20:32:35.000Z,100
2023-05-11T20:34:41.000Z,100
2023-05-11T20:36:08.000Z,100
2023-05-11T20:38:14.000Z,100
2023-05-11T20:39:40.000Z,100
2023-05-11T20:41:46.000Z,100
2023-05-11T20:43:13.000Z,100
2023-05-11T20:45:21.000Z,100
2023-05-11T20:46:47.000Z,100
2023-05-11T20:48:53.000Z,100
2023-05-11T20:50:20.000Z,100
2023-05-11T20:52:26.000Z,100
2023-05-11T20:53:53.000Z,100
2023-05-11T20:55:59.000Z,100
2023-05-11T20:57:28.000Z,100
2023-05-11T21:01:04.000Z,100
2023-05-11T21:03:10.000Z,100
2023-05-11T21:06:02.000Z,100
2023-05-11T21:07:28.000Z,100
2023-05-11T21:09:34.000Z,100
2023-05-11T21:11:01.000Z,100
2023-05-11T21:13:07.000Z,100
2023-05-11T21:14:33.000Z,100
2023-05-11T21:16:40.000Z,100
2023-05-11T21:18:06.000Z,100
2023-05-11T21:20:12.000Z,100
2023-05-11T21:21:39.000Z,100
2023-05-11T21:23:45.000Z,100
2023-05-11T21:25:11.000Z,100
2023-05-11T21:27:18.000Z,100
2023-05-11T21:28:44.000Z,100
2023-05-11T21:30:50.000Z,100
2023-05-11T21:32:17.000Z,100
2023-05-11T21:34:23.000Z,100
2023-05-11T21:35:49.000Z,100
2023-05-11T21:37:56.000Z,100
2023-05-11T21:39:22.000Z,100
2023-05-11T21:41:28.000Z,100
2023-05-11T21:44:20.000Z,100
2023-05-11T21:45:46.000Z,100
2023-05-11T21:47:52.000Z,100
2023-05-11T21:49:19.000Z,100
2023-05-11T21:51:25.000Z,100
2023-05-11T21:52:51.000Z,100
2023-05-11T21:54:57.000Z,100
2023-05-11T21:56:24.000Z,100
2023-05-11T21:58:30.000Z,100
2023-05-11T21:59:56.000Z,100
2023-05-11T22:02:03.000Z,100
2023-05-11T22:03:29.000Z,100
2023-05-11T22:05:36.000Z,100
2023-05-11T22:07:02.000Z,100
2023-05-11T22:09:08.000Z,100
2023-05-11T22:10:35.000Z,100
2023-05-11T22:12:41.000Z,100
2023-05-11T22:14:07.000Z,100
2023-05-11T22:16:14.000Z,100
2023-05-11T22:17:40.000Z,100
2023-05-11T22:19:46.000Z,100
2023-05-11T22:22:37.000Z,99
2023-05-11T22:24:04.000Z,100
2023-05-11T22:26:10.000Z,99
2023-05-11T22:27:36.000Z,99
2023-05-11T22:29:42.000Z,99
2023-05-11T22:31:09.000Z,99
2023-05-11T22:33:15.000Z,99
2023-05-11T22:34:42.000Z,98
2023-05-11T22:36:48.000Z,98
2023-05-11T22:38:14.000Z,98
2023-05-11T22:40:20.000Z,98
2023-05-11T22:41:47.000Z,98
2023-05-11T22:43:53.000Z,98
2023-05-11T22:45:20.000Z,98
2023-05-11T22:47:26.000Z,98
2023-05-11T22:48:52.000Z,97
2023-05-11T22:50:59.000Z,97
2023-05-11T22:52:25.000Z,98
2023-05-11T22:54:31.000Z,97
2023-05-11T22:55:58.000Z,98
2023-05-11T22:58:04.000Z,98
2023-05-11T23:00:55.000Z,98
2023-05-11T23:02:22.000Z,98
2023-05-11T23:04:28.000Z,98
2023-05-11T23:05:55.000Z,98
2023-05-11T23:08:01.000Z,98
2023-05-11T23:09:27.000Z,98
2023-05-11T23:11:34.000Z,98
2023-05-11T23:13:00.000Z,98
2023-05-11T23:15:06.000Z,98
2023-05-11T23:16:33.000Z,98
2023-05-11T23:18:39.000Z,98
2023-05-11T23:20:06.000Z,98
2023-05-11T23:22:12.000Z,97
2023-05-11T23:23:38.000Z,98
2023-05-11T23:25:44.000Z,98
2023-05-11T23:27:11.000Z,98
2023-05-11T23:29:17.000Z,98
2023-05-11T23:30:44.000Z,98
2023-05-11T23:32:50.000Z,98
2023-05-11T23:34:16.000Z,98
2023-05-11T23:36:23.000Z,98
2023-05-11T23:39:14.000Z,98
2023-05-11T23:40:41.000Z,98
2023-05-11T23:42:47.000Z,98
2023-05-11T23:44:14.000Z,98
2023-05-11T23:46:20.000Z,99
2023-05-11T23:47:47.000Z,99
2023-05-11T23:49:53.000Z,99
2023-05-11T23:51:20.000Z,99
2023-05-11T23:53:26.000Z,99
2023-05-11T23:54:52.000Z,99
2023-05-11T23:56:59.000Z,99
2023-05-11T23:58:25.000Z,99
